Time;durP1;ratioP1;P1;durP2;ratioP2;P2;SDS_P1;SDS_P2;PMS_P1;PMS_P2;Temp;Humidity;BMP_temperature;BMP_pressure;BME280_temperature;BME280_humidity;BME280_pressure;Samples;Min_cycle;Max_cycle;Signal;HPM_P1;HPM_P2
2022/06/21 00:01:31;;;;;;;11.05;5.32;;;;;;;;;;5049110;28;20048;-85
2022/06/21 00:03:58;;;;;;;8.63;4.60;;;;;;;;;;5049554;28;20402;-85
2022/06/21 00:06:25;;;;;;;6.32;4.28;;;;;;;;;;5056617;28;20044;-84
2022/06/21 00:08:51;;;;;;;7.90;4.65;;;;;;;;;;5049061;28;20036;-84
2022/06/21 00:11:30;;;;;;;8.73;4.80;;;;;;;;;;5048554;28;20493;-84
2022/06/21 00:13:56;;;;;;;7.97;5.20;;;;;;;;;;5048259;28;20452;-85
2022/06/21 00:16:23;;;;;;;9.32;4.65;;;;;;;;;;5048750;28;20132;-84
2022/06/21 00:18:49;;;;;;;7.07;4.40;;;;;;;;;;5050139;28;20116;-84
2022/06/21 00:21:23;;;;;;;8.05;4.90;;;;;;;;;;5048717;28;20049;-85
2022/06/21 00:23:50;;;;;;;7.22;5.15;;;;;;;;;;5066885;28;20043;-85
2022/06/21 00:26:17;;;;;;;10.43;5.07;;;;;;;;;;5054792;28;20044;-84
2022/06/21 00:28:43;;;;;;;10.13;4.80;;;;;;;;;;5062319;28;20117;-85
2022/06/21 00:31:23;;;;;;;8.48;4.78;;;;;;;;;;5045594;28;20103;-85
2022/06/21 00:33:49;;;;;;;10.35;4.85;;;;;;;;;;5068209;28;20123;-84
2022/06/21 00:36:23;;;;;;;10.18;5.05;;;;;;;;;;5063195;28;20505;-85
2022/06/21 00:38:50;;;;;;;8.50;4.50;;;;;;;;;;5048146;28;20481;-84
2022/06/21 00:41:18;;;;;;;6.47;4.50;;;;;;;;;;5048616;28;20112;-84
2022/06/21 00:43:46;;;;;;;10.18;4.80;;;;;;;;;;5050110;28;20045;-84
2022/06/21 00:46:36;;;;;;;9.27;4.70;;;;;;;;;;5048128;28;20049;-84
2022/06/21 00:49:02;;;;;;;8.30;4.78;;;;;;;;;;5048283;28;20405;-84
2022/06/21 00:51:34;;;;;;;7.15;5.00;;;;;;;;;;5049081;28;20040;-84
2022/06/21 00:54:04;;;;;;;9.38;4.63;;;;;;;;;;5064188;28;20128;-84
2022/06/21 00:57:02;;;;;;;7.28;4.90;;;;;;;;;;5047254;28;20124;-85
2022/06/21 00:59:30;;;;;;;8.85;4.68;;;;;;;;;;5047558;28;20059;-85
2022/06/21 01:01:58;;;;;;;8.10;4.72;;;;;;;;;;5050620;28;20098;-84
2022/06/21 01:04:28;;;;;;;9.90;5.35;;;;;;;;;;5045076;28;20745;-84
2022/06/21 01:06:55;;;;;;;10.70;5.28;;;;;;;;;;5055196;28;20045;-85
2022/06/21 01:09:25;;;;;;;7.85;4.72;;;;;;;;;;5053719;28;20076;-85
2022/06/21 01:12:00;;;;;;;10.38;5.65;;;;;;;;;;5049668;28;20099;-84
2022/06/21 01:14:27;;;;;;;9.00;5.15;;;;;;;;;;5049111;28;20041;-84
2022/06/21 01:16:54;;;;;;;7.72;5.20;;;;;;;;;;5047856;28;20128;-85
2022/06/21 01:19:29;;;;;;;6.82;5.05;;;;;;;;;;5049439;28;20041;-85
2022/06/21 01:21:58;;;;;;;6.22;5.40;;;;;;;;;;5031993;28;20498;-85
2022/06/21 01:24:31;;;;;;;7.57;4.85;;;;;;;;;;5045930;28;20502;-85
2022/06/21 01:27:04;;;;;;;7.50;5.40;;;;;;;;;;5051680;28;20102;-84
2022/06/21 01:29:31;;;;;;;8.60;5.22;;;;;;;;;;5043323;28;20037;-84
2022/06/21 01:31:59;;;;;;;6.97;5.40;;;;;;;;;;5032801;28;20458;-85
2022/06/21 01:34:26;;;;;;;12.50;5.78;;;;;;;;;;5043772;28;20082;-84
2022/06/21 01:36:54;;;;;;;6.90;5.72;;;;;;;;;;5052243;28;20061;-84
2022/06/21 01:39:22;;;;;;;10.38;6.32;;;;;;;;;;5048548;28;20124;-84
2022/06/21 01:41:55;;;;;;;9.05;6.60;;;;;;;;;;5051564;28;20123;-85
2022/06/21 01:44:31;;;;;;;8.32;6.55;;;;;;;;;;5057761;28;20107;-84
2022/06/21 01:46:58;;;;;;;10.90;6.88;;;;;;;;;;5071145;28;20075;-85
2022/06/21 01:49:26;;;;;;;9.63;6.68;;;;;;;;;;5066616;28;20044;-84
2022/06/21 01:51:54;;;;;;;8.35;6.72;;;;;;;;;;5052228;28;20045;-84
2022/06/21 01:54:21;;;;;;;10.10;6.32;;;;;;;;;;5052687;28;20041;-84
2022/06/21 01:56:49;;;;;;;9.63;7.30;;;;;;;;;;5051132;28;20088;-84
2022/06/21 01:59:26;;;;;;;9.63;6.80;;;;;;;;;;5056070;28;20049;-85
2022/06/21 02:01:55;;;;;;;9.95;6.50;;;;;;;;;;5032645;28;20111;-85
2022/06/21 02:04:23;;;;;;;8.45;6.53;;;;;;;;;;5068082;28;20053;-85
2022/06/21 02:06:50;;;;;;;9.73;6.20;;;;;;;;;;5031877;28;20416;-84
2022/06/21 02:09:27;;;;;;;11.00;6.85;;;;;;;;;;5081911;28;20090;-85
2022/06/21 02:11:57;;;;;;;11.55;6.00;;;;;;;;;;5070255;28;20040;-85
2022/06/21 02:14:29;;;;;;;9.50;6.82;;;;;;;;;;5042070;28;20494;-84
2022/06/21 02:17:00;;;;;;;9.85;7.32;;;;;;;;;;5031942;28;20063;-84
2022/06/21 02:19:29;;;;;;;11.32;7.43;;;;;;;;;;5039903;28;20107;-84
2022/06/21 02:21:55;;;;;;;9.68;6.97;;;;;;;;;;5051244;28;20493;-84
2022/06/21 02:24:23;;;;;;;10.82;7.45;;;;;;;;;;5051949;28;20037;-84
2022/06/21 02:26:50;;;;;;;11.07;7.10;;;;;;;;;;5050727;28;20385;-84
2022/06/21 02:29:16;;;;;;;10.13;7.50;;;;;;;;;;5034796;28;20053;-84
2022/06/21 02:31:42;;;;;;;7.05;6.00;;;;;;;;;;5047258;28;20049;-84
2022/06/21 02:34:13;;;;;;;9.20;6.90;;;;;;;;;;5035878;28;20065;-85
2022/06/21 02:36:46;;;;;;;9.50;6.75;;;;;;;;;;5031401;28;20061;-85
2022/06/21 02:39:14;;;;;;;9.55;6.30;;;;;;;;;;5065976;28;20142;-85
2022/06/21 02:41:41;;;;;;;10.27;6.72;;;;;;;;;;5031817;28;20119;-85
2022/06/21 02:44:19;;;;;;;7.22;5.80;;;;;;;;;;5046612;28;20041;-85
2022/06/21 02:46:47;;;;;;;10.90;5.95;;;;;;;;;;5051636;28;20556;-84
2022/06/21 02:49:15;;;;;;;8.63;6.32;;;;;;;;;;5049351;28;20056;-85
2022/06/21 02:51:44;;;;;;;7.60;6.18;;;;;;;;;;5052193;28;20041;-85
2022/06/21 02:54:10;;;;;;;7.00;5.80;;;;;;;;;;5071449;28;20041;-85
2022/06/21 02:56:42;;;;;;;9.88;5.90;;;;;;;;;;5070233;28;20097;-85
2022/06/21 02:59:10;;;;;;;9.15;6.30;;;;;;;;;;5032568;28;20041;-84
2022/06/21 03:01:40;;;;;;;9.82;6.25;;;;;;;;;;5030288;28;20084;-84
2022/06/21 03:04:07;;;;;;;8.82;6.10;;;;;;;;;;5047116;28;20130;-85
2022/06/21 03:06:34;;;;;;;8.13;5.82;;;;;;;;;;5063514;28;20047;-84
2022/06/21 03:09:07;;;;;;;9.48;6.15;;;;;;;;;;5069151;28;20072;-85
2022/06/21 03:11:44;;;;;;;8.77;6.22;;;;;;;;;;5070111;28;20040;-85
2022/06/21 03:14:13;;;;;;;8.85;5.75;;;;;;;;;;5050697;28;20041;-85
2022/06/21 03:16:39;;;;;;;10.80;6.28;;;;;;;;;;5049712;28;20049;-85
2022/06/21 03:19:07;;;;;;;7.95;6.03;;;;;;;;;;5036211;28;20048;-84
2022/06/21 03:21:34;;;;;;;8.50;5.45;;;;;;;;;;5031159;28;20043;-84
2022/06/21 03:24:04;;;;;;;9.25;6.28;;;;;;;;;;5029342;28;20394;-85
2022/06/21 03:26:30;;;;;;;8.20;6.15;;;;;;;;;;5031272;28;20128;-84
2022/06/21 03:28:57;;;;;;;9.68;6.40;;;;;;;;;;5042806;28;20050;-84
2022/06/21 03:31:35;;;;;;;8.13;6.75;;;;;;;;;;5066739;28;20087;-85
2022/06/21 03:34:07;;;;;;;8.15;6.47;;;;;;;;;;5069750;28;20052;-84
2022/06/21 03:36:33;;;;;;;10.32;7.07;;;;;;;;;;5069290;28;20061;-84
2022/06/21 03:39:20;;;;;;;7.00;6.28;;;;;;;;;;5056562;28;20478;-85
2022/06/21 03:41:48;;;;;;;10.63;7.35;;;;;;;;;;5044027;28;20045;-85
2022/06/21 03:44:38;;;;;;;10.90;7.00;;;;;;;;;;5062037;28;20053;-85
2022/06/21 03:47:13;;;;;;;8.60;7.45;;;;;;;;;;5041034;28;20049;-85
2022/06/21 03:49:39;;;;;;;8.85;7.95;;;;;;;;;;5050030;28;20182;-85
2022/06/21 03:52:07;;;;;;;8.52;7.63;;;;;;;;;;5050190;28;20729;-85
2022/06/21 03:54:33;;;;;;;9.65;7.10;;;;;;;;;;5049213;28;20052;-85
2022/06/21 03:57:03;;;;;;;13.48;7.82;;;;;;;;;;5081211;28;20041;-85
2022/06/21 03:59:49;;;;;;;9.90;7.80;;;;;;;;;;5048403;28;20068;-85
2022/06/21 04:02:23;;;;;;;12.07;8.18;;;;;;;;;;5064562;28;20141;-85
2022/06/21 04:04:55;;;;;;;10.70;8.00;;;;;;;;;;5069652;28;20485;-85
2022/06/21 04:07:25;;;;;;;11.23;7.85;;;;;;;;;;5068224;28;20265;-85
2022/06/21 04:10:08;;;;;;;10.23;8.20;;;;;;;;;;5068634;28;20036;-84
2022/06/21 04:12:44;;;;;;;9.57;7.63;;;;;;;;;;5033089;28;20044;-85
2022/06/21 04:15:10;;;;;;;;;;;;;;;;;;5053038;28;20050;-84
2022/06/21 04:17:45;;;;;;;11.45;7.85;;;;;;;;;;5051488;28;19925;-85
2022/06/21 04:20:14;;;;;;;11.00;7.87;;;;;;;;;;5061177;28;20240;-85
2022/06/21 04:22:47;;;;;;;13.98;7.75;;;;;;;;;;5028889;28;20460;-85
2022/06/21 04:25:21;;;;;;;13.35;7.80;;;;;;;;;;5028660;28;20466;-85
2022/06/21 04:27:57;;;;;;;12.57;7.50;;;;;;;;;;5030473;28;20708;-85
2022/06/21 04:30:27;;;;;;;11.95;7.55;;;;;;;;;;5062007;28;20136;-85
2022/06/21 04:33:00;;;;;;;11.75;7.72;;;;;;;;;;5078698;28;20055;-85
2022/06/21 04:35:29;;;;;;;10.35;7.40;;;;;;;;;;5037332;28;20074;-85
2022/06/21 04:38:15;;;;;;;10.60;7.32;;;;;;;;;;5100204;28;20044;-85
2022/06/21 04:40:47;;;;;;;10.32;7.43;;;;;;;;;;5054812;28;20184;-85
2022/06/21 04:43:21;;;;;;;10.82;7.43;;;;;;;;;;5033139;28;20115;-85
2022/06/21 04:45:56;;;;;;;13.52;7.25;;;;;;;;;;5029470;28;20045;-85
2022/06/21 04:48:41;;;;;;;13.45;7.70;;;;;;;;;;5030699;28;20490;-85
2022/06/21 04:51:09;;;;;;;10.40;7.47;;;;;;;;;;5029665;28;20056;-85
2022/06/21 04:53:38;;;;;;;9.90;7.40;;;;;;;;;;5029808;28;20046;-85
2022/06/21 04:56:13;;;;;;;9.75;7.40;;;;;;;;;;5029245;28;20085;-85
2022/06/21 04:58:39;;;;;;;11.10;7.22;;;;;;;;;;5033650;28;20049;-85
2022/06/21 05:03:51;;;;;;;10.10;7.07;;;;;;;;;;5084914;28;20057;-85
2022/06/21 05:06:17;;;;;;;11.95;6.82;;;;;;;;;;5053964;28;20552;-85
2022/06/21 05:08:43;;;;;;;8.75;6.88;;;;;;;;;;5053668;28;20049;-85
2022/06/21 05:11:11;;;;;;;13.40;6.57;;;;;;;;;;5049629;28;20037;-85
2022/06/21 05:13:39;;;;;;;8.70;6.15;;;;;;;;;;5033610;28;20049;-85
2022/06/21 05:16:10;;;;;;;9.73;5.82;;;;;;;;;;5070027;28;20045;-85
2022/06/21 05:18:38;;;;;;;10.20;5.93;;;;;;;;;;5065548;28;20045;-85
2022/06/21 05:21:09;;;;;;;10.30;5.65;;;;;;;;;;5032058;28;20041;-85
2022/06/21 05:23:35;;;;;;;10.05;5.50;;;;;;;;;;5045586;28;20083;-85
2022/06/21 05:26:04;;;;;;;10.77;6.03;;;;;;;;;;5050838;28;20037;-85
2022/06/21 05:28:36;;;;;;;8.40;5.97;;;;;;;;;;5033123;28;20458;-85
2022/06/21 05:31:23;;;;;;;8.52;5.50;;;;;;;;;;5041526;28;20165;-85
2022/06/21 05:33:51;;;;;;;9.00;5.95;;;;;;;;;;5057191;28;20050;-85
2022/06/21 05:36:22;;;;;;;9.60;6.43;;;;;;;;;;5071497;28;20611;-85
2022/06/21 05:38:53;;;;;;;10.50;6.20;;;;;;;;;;5073084;28;20067;-86
2022/06/21 05:41:30;;;;;;;10.70;6.30;;;;;;;;;;5063603;28;20045;-85
2022/06/21 05:44:00;;;;;;;8.77;6.35;;;;;;;;;;5052025;28;20045;-86
2022/06/21 05:46:29;;;;;;;12.68;7.38;;;;;;;;;;5051825;28;20081;-85
2022/06/21 05:48:56;;;;;;;10.75;7.30;;;;;;;;;;5051621;28;20052;-85
2022/06/21 05:51:25;;;;;;;9.70;7.10;;;;;;;;;;5051733;28;20052;-85
2022/06/21 05:53:58;;;;;;;10.85;7.10;;;;;;;;;;5052892;28;20095;-85
2022/06/21 05:56:25;;;;;;;9.60;6.72;;;;;;;;;;5064269;28;20049;-84
2022/06/21 05:58:54;;;;;;;10.48;6.90;;;;;;;;;;5070726;28;20128;-85
2022/06/21 06:01:29;;;;;;;8.50;6.63;;;;;;;;;;5063960;28;20037;-85
2022/06/21 06:04:14;;;;;;;11.07;7.22;;;;;;;;;;5044315;28;20140;-85
2022/06/21 06:06:42;;;;;;;8.15;6.90;;;;;;;;;;5045181;28;20095;-85
2022/06/21 06:09:11;;;;;;;9.45;6.90;;;;;;;;;;5050636;28;20389;-85
2022/06/21 06:11:59;;;;;;;9.65;7.10;;;;;;;;;;5062078;28;20088;-85
2022/06/21 06:14:28;;;;;;;11.50;7.82;;;;;;;;;;5070501;28;20080;-84
2022/06/21 06:16:55;;;;;;;10.80;8.15;;;;;;;;;;5071896;28;20055;-84
2022/06/21 06:19:21;;;;;;;10.45;7.85;;;;;;;;;;5065868;28;20520;-84
2022/06/21 06:21:53;;;;;;;9.25;7.10;;;;;;;;;;5052076;28;20053;-84
2022/06/21 06:24:22;;;;;;;7.55;6.38;;;;;;;;;;5052354;28;20045;-84
2022/06/21 06:26:50;;;;;;;9.05;6.10;;;;;;;;;;5051977;28;20382;-84
2022/06/21 06:29:18;;;;;;;5.95;4.50;;;;;;;;;;5050467;28;20052;-84
2022/06/21 06:31:47;;;;;;;7.15;4.72;;;;;;;;;;5057320;28;20116;-84
2022/06/21 06:34:15;;;;;;;6.28;4.18;;;;;;;;;;5049280;28;20060;-85
2022/06/21 06:36:43;;;;;;;9.25;5.68;;;;;;;;;;5062550;28;20060;-85
2022/06/21 06:39:19;;;;;;;6.07;4.40;;;;;;;;;;5051724;28;20041;-85
2022/06/21 06:41:52;;;;;;;7.25;4.32;;;;;;;;;;5033460;28;20053;-85
2022/06/21 06:44:19;;;;;;;6.63;3.95;;;;;;;;;;5054418;28;20048;-85
2022/06/21 06:46:49;;;;;;;5.85;3.60;;;;;;;;;;5071580;28;20060;-85
2022/06/21 06:49:18;;;;;;;9.20;4.20;;;;;;;;;;5061697;28;20048;-85
2022/06/21 06:51:54;;;;;;;5.65;4.00;;;;;;;;;;5051593;28;20040;-85
2022/06/21 06:54:49;;;;;;;5.60;3.90;;;;;;;;;;5040961;28;20045;-84
2022/06/21 06:57:27;;;;;;;5.65;3.17;;;;;;;;;;5053970;28;20487;-85
2022/06/21 06:59:56;;;;;;;6.78;3.60;;;;;;;;;;5051164;28;20048;-85
2022/06/21 07:02:33;;;;;;;7.78;5.13;;;;;;;;;;5051216;28;20045;-85
2022/06/21 07:05:14;;;;;;;9.10;4.03;;;;;;;;;;5048243;28;20044;-85
2022/06/21 07:07:46;;;;;;;10.15;4.70;;;;;;;;;;5051287;28;20041;-85
2022/06/21 07:10:16;;;;;;;6.40;4.47;;;;;;;;;;5051100;28;20048;-85
2022/06/21 07:21:31;;;;;;;;;;;;;;;;;;5135865;27;1295753;-73
2022/06/21 07:23:59;;;;;;;7.37;4.57;;;;;;;;;;5166691;27;19940;-74
2022/06/21 07:26:33;;;;;;;9.88;4.82;;;;;;;;;;5160966;27;20050;-74
2022/06/21 07:29:09;;;;;;;8.52;4.70;;;;;;;;;;5161005;27;20039;-74
2022/06/21 07:31:41;;;;;;;6.53;4.57;;;;;;;;;;5161515;27;20051;-73
2022/06/21 07:34:16;;;;;;;8.48;4.40;;;;;;;;;;5162306;27;20035;-74
2022/06/21 07:36:57;;;;;;;7.57;4.38;;;;;;;;;;5169740;27;20431;-75
2022/06/21 07:39:26;;;;;;;8.35;4.45;;;;;;;;;;5181801;27;20038;-74
2022/06/21 07:41:55;;;;;;;9.07;4.18;;;;;;;;;;5163387;27;20049;-80
2022/06/21 07:44:24;;;;;;;6.93;4.65;;;;;;;;;;5165215;27;20046;-74
2022/06/21 07:46:53;;;;;;;7.90;4.13;;;;;;;;;;5158597;27;20039;-74
2022/06/21 07:49:26;;;;;;;5.65;3.63;;;;;;;;;;5143492;27;20090;-74
2022/06/21 07:51:57;;;;;;;7.72;3.92;;;;;;;;;;5138625;28;20095;-73
2022/06/21 07:54:27;;;;;;;7.35;3.72;;;;;;;;;;5136441;27;20059;-79
2022/06/21 07:57:16;;;;;;;5.85;4.00;;;;;;;;;;5112065;27;20051;-74
2022/06/21 07:59:45;;;;;;;7.65;3.60;;;;;;;;;;5129957;27;20067;-74
2022/06/21 08:08:02;;;;;;;7.10;4.30;;;;;;;;;;5133000;28;20053;-74
2022/06/21 08:10:32;;;;;;;6.05;4.07;;;;;;;;;;5132603;28;20047;-74
2022/06/21 08:12:58;;;;;;;9.30;3.85;;;;;;;;;;5124034;27;20044;-74
2022/06/21 08:15:26;;;;;;;5.13;3.60;;;;;;;;;;5134971;27;20093;-74
2022/06/21 08:17:55;;;;;;;7.05;4.10;;;;;;;;;;5125727;28;20035;-74
2022/06/21 08:20:24;;;;;;;7.82;4.45;;;;;;;;;;5131950;27;20048;-74
2022/06/21 08:22:58;;;;;;;7.32;3.90;;;;;;;;;;5134477;27;20047;-74
2022/06/21 08:25:27;;;;;;;8.48;3.88;;;;;;;;;;5135426;27;20401;-74
2022/06/21 08:27:56;;;;;;;5.40;3.65;;;;;;;;;;5128336;28;20081;-74
2022/06/21 08:30:31;;;;;;;6.72;4.22;;;;;;;;;;5114697;28;20051;-74
2022/06/21 08:33:03;;;;;;;4.72;3.45;;;;;;;;;;5105863;27;20420;-74
2022/06/21 08:35:34;;;;;;;5.65;3.80;;;;;;;;;;5119564;27;20043;-74
2022/06/21 08:38:13;;;;;;;7.55;3.58;;;;;;;;;;5137859;27;20477;-74
2022/06/21 08:40:42;;;;;;;6.43;3.92;;;;;;;;;;5121693;27;20039;-74
2022/06/21 08:43:27;;;;;;;6.60;4.05;;;;;;;;;;5136476;27;20062;-84
2022/06/21 08:45:53;;;;;;;6.03;3.47;;;;;;;;;;5103143;27;20126;-74
2022/06/21 08:48:34;;;;;;;9.23;3.80;;;;;;;;;;5116721;27;20051;-74
2022/06/21 08:51:10;;;;;;;8.48;3.90;;;;;;;;;;5111906;28;20167;-74
2022/06/21 08:53:39;;;;;;;9.50;3.40;;;;;;;;;;5097836;28;20047;-73
2022/06/21 08:56:11;;;;;;;4.35;3.30;;;;;;;;;;5100353;28;20054;-73
2022/06/21 08:58:40;;;;;;;7.32;3.70;;;;;;;;;;5101453;28;20035;-82
2022/06/21 09:01:12;;;;;;;4.88;3.38;;;;;;;;;;5098798;28;20051;-73
2022/06/21 09:03:58;;;;;;;8.48;3.95;;;;;;;;;;5116041;27;20118;-74
2022/06/21 09:06:42;;;;;;;6.50;3.35;;;;;;;;;;5064475;28;20445;-74
2022/06/21 09:09:14;;;;;;;5.95;3.53;;;;;;;;;;5115934;28;20077;-74
2022/06/21 09:11:50;;;;;;;6.53;3.60;;;;;;;;;;5115990;28;20122;-73
2022/06/21 09:14:16;;;;;;;6.68;3.38;;;;;;;;;;5116064;28;20050;-74
2022/06/21 09:17:04;;;;;;;7.03;3.47;;;;;;;;;;5097117;28;20074;-74
2022/06/21 09:19:48;;;;;;;5.55;3.55;;;;;;;;;;5097495;28;20059;-74
2022/06/21 09:22:15;;;;;;;7.10;4.40;;;;;;;;;;5115799;28;20055;-74
2022/06/21 09:25:00;;;;;;;6.78;3.90;;;;;;;;;;5115358;28;20437;-74
2022/06/21 09:27:38;;;;;;;6.72;4.18;;;;;;;;;;5115275;27;20101;-74
2022/06/21 09:30:15;;;;;;;6.45;4.35;;;;;;;;;;5115615;28;20059;-74
2022/06/21 09:32:41;;;;;;;5.65;3.85;;;;;;;;;;5115129;28;20101;-74
2022/06/21 09:35:26;;;;;;;6.65;4.00;;;;;;;;;;5115166;28;20445;-74
2022/06/21 09:37:56;;;;;;;6.32;4.38;;;;;;;;;;5097035;28;20043;-74
2022/06/21 09:40:33;;;;;;;6.20;4.00;;;;;;;;;;5115173;28;20048;-74
2022/06/21 09:43:18;;;;;;;7.03;4.63;;;;;;;;;;5097363;28;20065;-74
2022/06/21 09:45:55;;;;;;;7.68;4.18;;;;;;;;;;5126664;27;20039;-73
2022/06/21 09:48:40;;;;;;;6.28;3.90;;;;;;;;;;5109167;27;20058;-78
2022/06/21 09:51:06;;;;;;;9.25;4.30;;;;;;;;;;5115892;27;20406;-74
2022/06/21 09:53:38;;;;;;;7.35;3.85;;;;;;;;;;5116540;28;20402;-74
2022/06/21 09:56:06;;;;;;;7.43;4.45;;;;;;;;;;5115807;28;20065;-74
2022/06/21 09:58:37;;;;;;;6.95;4.03;;;;;;;;;;5120057;27;20073;-74
2022/06/21 10:01:18;;;;;;;6.57;4.65;;;;;;;;;;5122641;27;20055;-74
2022/06/21 10:03:56;;;;;;;6.65;3.45;;;;;;;;;;5118133;27;20079;-74
2022/06/21 10:06:31;;;;;;;7.07;4.07;;;;;;;;;;5116182;27;20061;-73
2022/06/21 10:09:00;;;;;;;6.45;3.80;;;;;;;;;;5104941;27;20035;-73
2022/06/21 10:11:40;;;;;;;5.00;3.28;;;;;;;;;;5115682;28;20051;-74
2022/06/21 10:14:21;;;;;;;4.95;3.35;;;;;;;;;;5122327;27;20039;-73
2022/06/21 10:16:50;;;;;;;5.45;3.40;;;;;;;;;;5133110;27;20126;-73
2022/06/21 10:19:23;;;;;;;4.35;3.30;;;;;;;;;;5134276;27;20039;-73
2022/06/21 10:21:58;;;;;;;5.90;3.40;;;;;;;;;;5134771;27;20047;-74
2022/06/21 10:24:39;;;;;;;4.60;2.80;;;;;;;;;;5134752;27;20086;-73
2022/06/21 10:27:09;;;;;;;6.13;3.13;;;;;;;;;;5128106;27;20126;-74
2022/06/21 10:29:42;;;;;;;5.00;3.38;;;;;;;;;;5114457;27;20100;-73
2022/06/21 10:32:27;;;;;;;4.68;3.50;;;;;;;;;;5096095;28;20520;-73
2022/06/21 10:35:12;;;;;;;4.50;2.90;;;;;;;;;;5095726;28;20123;-72
2022/06/21 10:37:57;;;;;;;7.20;3.40;;;;;;;;;;5119691;27;20067;-74
2022/06/21 10:40:29;;;;;;;5.10;3.40;;;;;;;;;;5115403;27;20437;-74
2022/06/21 10:42:55;;;;;;;5.45;3.20;;;;;;;;;;5125635;27;20039;-73
2022/06/21 10:45:35;;;;;;;5.90;3.28;;;;;;;;;;5113624;28;20050;-74
2022/06/21 10:48:14;;;;;;;7.05;3.42;;;;;;;;;;5082859;27;20071;-74
2022/06/21 10:50:55;;;;;;;6.13;3.30;;;;;;;;;;5122620;27;20406;-73
2022/06/21 10:53:38;;;;;;;5.93;3.25;;;;;;;;;;5117400;28;20379;-74
2022/06/21 10:59:07;;;;;;;6.68;4.15;;;;;;;;;;5128627;27;20047;-75
2022/06/21 11:01:40;;;;;;;9.00;4.95;;;;;;;;;;5133862;27;20086;-75
2022/06/21 11:04:18;;;;;;;5.70;3.50;;;;;;;;;;5098563;28;20047;-74
2022/06/21 11:06:55;;;;;;;7.43;3.80;;;;;;;;;;5124230;27;20571;-77
2022/06/21 11:09:27;;;;;;;3.97;3.30;;;;;;;;;;5114833;28;20039;-73
2022/06/21 11:11:56;;;;;;;28.35;8.68;;;;;;;;;;5116891;28;20047;-74
2022/06/21 11:14:22;;;;;;;8.98;4.85;;;;;;;;;;5115242;28;20717;-74
2022/06/21 11:16:51;;;;;;;4.97;3.45;;;;;;;;;;5096986;28;20128;-73
2022/06/21 11:19:41;;;;;;;25.58;9.35;;;;;;;;;;5113344;28;20131;-73
2022/06/21 11:22:25;;;;;;;11.43;5.15;;;;;;;;;;5113542;28;20063;-74
2022/06/21 11:24:57;;;;;;;7.68;3.60;;;;;;;;;;5113568;28;20040;-73
2022/06/21 11:27:39;;;;;;;6.68;3.60;;;;;;;;;;5119269;28;20055;-74
2022/06/21 11:30:14;;;;;;;5.82;3.58;;;;;;;;;;5133611;28;20176;-74
2022/06/21 11:32:52;;;;;;;4.83;3.30;;;;;;;;;;5133837;28;20107;-74
2022/06/21 11:35:21;;;;;;;6.07;3.67;;;;;;;;;;5133777;28;20067;-73
2022/06/21 11:37:53;;;;;;;6.50;3.30;;;;;;;;;;5111078;28;20402;-74
2022/06/21 11:40:33;;;;;;;5.63;3.45;;;;;;;;;;5113166;28;20048;-73
2022/06/21 11:43:03;;;;;;;4.75;2.80;;;;;;;;;;5110404;28;20493;-74
2022/06/21 11:45:35;;;;;;;4.43;2.70;;;;;;;;;;5133719;28;20047;-74
2022/06/21 11:48:01;;;;;;;3.78;2.58;;;;;;;;;;5115313;28;20044;-74
2022/06/21 11:50:32;;;;;;;5.32;2.70;;;;;;;;;;5120576;28;20058;-74
2022/06/21 11:53:23;;;;;;;5.15;2.67;;;;;;;;;;5123151;28;20537;-74
2022/06/21 11:55:56;;;;;;;3.45;2.65;;;;;;;;;;5133887;28;20047;-74
2022/06/21 11:58:25;;;;;;;4.50;2.95;;;;;;;;;;5112695;28;20058;-74
2022/06/21 12:00:55;;;;;;;4.07;2.38;;;;;;;;;;5112981;28;20149;-74
2022/06/21 12:03:36;;;;;;;6.13;2.78;;;;;;;;;;5113090;28;20090;-75
2022/06/21 12:06:08;;;;;;;4.28;2.83;;;;;;;;;;5126769;27;20504;-74
2022/06/21 12:08:40;;;;;;;5.78;3.00;;;;;;;;;;5137452;27;20494;-74
2022/06/21 12:11:06;;;;;;;5.68;3.72;;;;;;;;;;5133496;27;20066;-74
2022/06/21 12:13:38;;;;;;;4.32;3.33;;;;;;;;;;5116070;28;20078;-74
2022/06/21 12:16:23;;;;;;;5.05;3.50;;;;;;;;;;5116675;28;20054;-74
2022/06/21 12:18:51;;;;;;;5.60;3.35;;;;;;;;;;5098852;28;20066;-74
2022/06/21 12:21:20;;;;;;;6.43;3.55;;;;;;;;;;5116322;27;20084;-73
2022/06/21 12:23:51;;;;;;;6.20;4.00;;;;;;;;;;5117299;27;20054;-74
2022/06/21 12:26:19;;;;;;;6.30;4.03;;;;;;;;;;5101159;28;20067;-74
2022/06/21 12:28:46;;;;;;;5.63;3.55;;;;;;;;;;5116647;27;20047;-74
2022/06/21 12:31:17;;;;;;;6.90;3.70;;;;;;;;;;5118766;27;20047;-73
2022/06/21 12:33:45;;;;;;;6.13;3.80;;;;;;;;;;5106453;28;20051;-74
2022/06/21 12:36:22;;;;;;;5.55;3.72;;;;;;;;;;5116162;28;20048;-74
2022/06/21 12:39:08;;;;;;;5.90;3.38;;;;;;;;;;5116452;28;20039;-74
2022/06/21 12:41:34;;;;;;;6.97;3.72;;;;;;;;;;5099514;27;20047;-73
2022/06/21 12:44:06;;;;;;;6.63;3.50;;;;;;;;;;5136815;27;20066;-74
2022/06/21 12:46:34;;;;;;;7.93;4.10;;;;;;;;;;5136625;27;20478;-74
2022/06/21 12:49:24;;;;;;;8.85;3.83;;;;;;;;;;5136692;27;20078;-73
2022/06/21 12:52:29;;;;;;;6.72;3.70;;;;;;;;;;5118693;27;20547;-74
2022/06/21 12:54:55;;;;;;;6.82;3.78;;;;;;;;;;5052563;28;20505;-74
2022/06/21 12:57:32;;;;;;;6.95;4.07;;;;;;;;;;5035356;28;20084;-74
2022/06/21 13:00:21;;;;;;;6.65;3.80;;;;;;;;;;5053262;28;20056;-74
2022/06/21 13:02:47;;;;;;;8.45;3.70;;;;;;;;;;5045015;28;20049;-74
2022/06/21 13:05:31;;;;;;;6.72;3.63;;;;;;;;;;5030758;28;20041;-74
2022/06/21 13:08:09;;;;;;;6.85;3.53;;;;;;;;;;5034390;28;20103;-74
2022/06/21 13:10:50;;;;;;;5.85;3.63;;;;;;;;;;5053284;28;20100;-74
2022/06/21 13:13:24;;;;;;;7.78;4.20;;;;;;;;;;5036344;28;20111;-74
2022/06/21 13:16:06;;;;;;;6.97;3.60;;;;;;;;;;5053258;28;20052;-74
2022/06/21 13:18:41;;;;;;;4.65;3.25;;;;;;;;;;5052780;28;20427;-73
2022/06/21 13:21:25;;;;;;;5.15;3.20;;;;;;;;;;5045262;28;20053;-74
2022/06/21 13:24:06;;;;;;;5.90;3.15;;;;;;;;;;5039100;28;20037;-74
2022/06/21 13:26:55;;;;;;;6.47;3.40;;;;;;;;;;5107401;27;20118;-75
2022/06/21 13:29:28;;;;;;;6.70;3.20;;;;;;;;;;5131418;27;20042;-74
2022/06/21 13:31:57;;;;;;;7.03;3.22;;;;;;;;;;5136613;27;20042;-73
2022/06/21 13:34:38;;;;;;;4.60;2.60;;;;;;;;;;5106322;28;20567;-82
2022/06/21 13:37:22;;;;;;;6.15;3.10;;;;;;;;;;5123656;27;20042;-74
2022/06/21 13:40:04;;;;;;;5.68;3.00;;;;;;;;;;5122427;27;20043;-81
2022/06/21 13:42:48;;;;;;;9.65;4.65;;;;;;;;;;5120731;27;20103;-73
2022/06/21 13:45:17;;;;;;;9.95;5.30;;;;;;;;;;5138199;27;20100;-73
2022/06/21 13:47:46;;;;;;;11.60;6.30;;;;;;;;;;5132838;27;20035;-76
2022/06/21 13:50:23;;;;;;;8.75;5.55;;;;;;;;;;5124165;27;20108;-73
2022/06/21 13:52:56;;;;;;;9.88;5.65;;;;;;;;;;5098966;28;20075;-74
2022/06/21 13:55:35;;;;;;;8.50;5.95;;;;;;;;;;5115017;28;20047;-74
2022/06/21 13:58:04;;;;;;;6.60;4.93;;;;;;;;;;5107853;27;20050;-74
2022/06/21 14:00:33;;;;;;;13.50;5.28;;;;;;;;;;5112038;27;20055;-74
2022/06/21 14:03:06;;;;;;;7.53;5.38;;;;;;;;;;5114304;28;20401;-74
2022/06/21 14:05:35;;;;;;;8.10;5.38;;;;;;;;;;5096833;28;20127;-74
2022/06/21 14:08:04;;;;;;;13.35;5.60;;;;;;;;;;5096624;28;20477;-74
2022/06/21 14:10:38;;;;;;;9.35;5.20;;;;;;;;;;5115160;28;20039;-74
2022/06/21 14:13:07;;;;;;;7.15;4.80;;;;;;;;;;5114872;28;20502;-74
2022/06/21 14:15:36;;;;;;;8.65;5.00;;;;;;;;;;5118056;27;20051;-78
2022/06/21 14:18:15;;;;;;;7.65;4.57;;;;;;;;;;5135348;27;20039;-78
2022/06/21 14:20:47;;;;;;;11.35;5.18;;;;;;;;;;5134885;27;20091;-77
2022/06/21 14:23:32;;;;;;;8.35;4.85;;;;;;;;;;5134697;27;20047;-78
2022/06/21 14:25:58;;;;;;;10.38;4.55;;;;;;;;;;5116355;27;20538;-77
2022/06/21 14:28:28;;;;;;;9.30;5.03;;;;;;;;;;5116484;27;20043;-78
2022/06/21 14:31:02;;;;;;;7.95;4.70;;;;;;;;;;5109955;28;20039;-78
2022/06/21 14:33:32;;;;;;;7.63;5.00;;;;;;;;;;5114074;27;20040;-77
2022/06/21 14:36:17;;;;;;;8.70;4.70;;;;;;;;;;5114099;28;20122;-78
2022/06/21 14:38:50;;;;;;;10.90;5.20;;;;;;;;;;5095842;28;20119;-78
2022/06/21 14:41:29;;;;;;;10.48;5.90;;;;;;;;;;5112049;27;20482;-78
2022/06/21 14:44:01;;;;;;;8.30;4.80;;;;;;;;;;5090481;28;20048;-79
2022/06/21 14:46:43;;;;;;;8.73;5.35;;;;;;;;;;5096213;28;20053;-78
2022/06/21 14:49:16;;;;;;;10.65;5.85;;;;;;;;;;5124946;27;20039;-78
2022/06/21 14:51:48;;;;;;;9.65;5.70;;;;;;;;;;5106173;28;20138;-78
2022/06/21 14:54:14;;;;;;;11.25;5.38;;;;;;;;;;5106038;28;20075;-78
2022/06/21 14:56:43;;;;;;;6.95;5.25;;;;;;;;;;5078848;28;20048;-78
2022/06/21 14:59:29;;;;;;;8.15;5.20;;;;;;;;;;5113274;27;20509;-78
2022/06/21 15:02:02;;;;;;;8.82;4.90;;;;;;;;;;5116760;27;20089;-79
2022/06/21 15:04:37;;;;;;;8.43;5.03;;;;;;;;;;5122534;27;20051;-79
2022/06/21 15:07:18;;;;;;;11.18;6.03;;;;;;;;;;5134282;27;20099;-79
2022/06/21 15:09:50;;;;;;;10.90;5.25;;;;;;;;;;5134054;27;20047;-79
2022/06/21 15:12:18;;;;;;;10.77;6.70;;;;;;;;;;5133773;27;20054;-79
2022/06/21 15:14:48;;;;;;;8.52;5.38;;;;;;;;;;5114182;27;20035;-79
2022/06/21 15:17:17;;;;;;;7.00;6.20;;;;;;;;;;5133576;27;20039;-79
2022/06/21 15:19:59;;;;;;;9.02;4.80;;;;;;;;;;5134190;28;20142;-79
2022/06/21 15:22:36;;;;;;;9.18;5.60;;;;;;;;;;5121743;28;20039;-78
2022/06/21 15:25:20;;;;;;;10.38;5.50;;;;;;;;;;5095159;28;20440;-79
2022/06/21 15:27:58;;;;;;;10.90;6.28;;;;;;;;;;5121002;28;20040;-78
2022/06/21 15:30:25;;;;;;;11.10;7.10;;;;;;;;;;5128815;28;20036;-79
2022/06/21 15:33:04;;;;;;;10.77;7.03;;;;;;;;;;5098515;28;20036;-78
2022/06/21 15:35:46;;;;;;;9.43;7.03;;;;;;;;;;5113182;28;20490;-78